Time;durP1;ratioP1;P1;durP2;ratioP2;P2;SDS_P1;SDS_P2;PMS_P1;PMS_P2;Temp;Humidity;BMP_temperature;BMP_pressure;BME280_temperature;BME280_humidity;BME280_pressure;Samples;Min_cycle;Max_cycle;Signal;HPM_P1;HPM_P2
2021/10/30 00:02:04;;;;;;;7.60;4.80;;;;;;;9.90;74.38;100236.78;115690;1192;59799;-78
2021/10/30 00:04:30;;;;;;;7.80;4.30;;;;;;;9.85;74.44;100238.34;115787;1191;59949;-78
2021/10/30 00:06:59;;;;;;;8.40;5.20;;;;;;;9.79;74.46;100236.71;115567;1192;60019;-78
2021/10/30 00:09:26;;;;;;;13.50;6.10;;;;;;;9.74;74.96;100242.16;115363;1191;75631;-79
2021/10/30 00:11:52;;;;;;;4.90;3.10;;;;;;;9.68;75.01;100242.31;115758;1192;71984;-79
2021/10/30 00:14:19;;;;;;;6.90;4.30;;;;;;;9.61;75.22;100240.63;115746;1191;73730;-79
2021/10/30 00:16:46;;;;;;;6.60;4.60;;;;;;;9.53;75.30;100240.34;115185;1192;61825;-78
2021/10/30 00:19:12;;;;;;;8.70;4.80;;;;;;;9.44;75.29;100235.95;115753;1192;61665;-78
2021/10/30 00:21:39;;;;;;;8.60;4.80;;;;;;;9.41;75.66;100240.52;115750;1191;60115;-78
2021/10/30 00:24:05;;;;;;;8.30;5.90;;;;;;;9.35;75.73;100239.63;115744;1192;59883;-78
2021/10/30 00:26:32;;;;;;;8.70;4.50;;;;;;;9.30;75.68;100245.09;115768;1192;59837;-78
2021/10/30 00:28:59;;;;;;;10.40;5.70;;;;;;;9.26;75.91;100246.48;115578;1191;62669;-77
2021/10/30 00:31:25;;;;;;;10.20;5.20;;;;;;;9.21;76.22;100244.73;115566;1192;61172;-78
2021/10/30 00:33:52;;;;;;;12.00;5.50;;;;;;;9.16;76.19;100242.83;115701;1192;75392;-78
2021/10/30 00:36:18;;;;;;;9.30;5.60;;;;;;;9.11;76.66;100243.29;115737;1192;70957;-78
2021/10/30 00:38:45;;;;;;;9.50;6.00;;;;;;;9.05;76.77;100244.97;115515;1192;72342;-78
2021/10/30 00:41:12;;;;;;;10.50;5.90;;;;;;;9.00;76.96;100243.63;115678;1192;60296;-78
2021/10/30 00:43:38;;;;;;;7.30;4.20;;;;;;;8.95;77.41;100237.84;115759;1192;60330;-78
2021/10/30 00:46:06;;;;;;;11.30;5.10;;;;;;;8.91;77.49;100239.48;115717;1192;75357;-78
2021/10/30 00:48:33;;;;;;;12.80;6.80;;;;;;;8.89;77.50;100244.23;115147;1192;71672;-79
2021/10/30 00:51:00;;;;;;;11.30;6.70;;;;;;;8.86;77.45;100246.45;115647;1192;72462;-79
2021/10/30 00:53:30;;;;;;;8.80;5.30;;;;;;;8.84;77.67;100244.22;115723;1192;60844;-79
2021/10/30 00:56:03;;;;;;;9.60;5.60;;;;;;;8.81;77.86;100239.98;115079;1192;61463;-79
2021/10/30 00:58:34;;;;;;;9.10;5.40;;;;;;;8.77;77.96;100240.63;115706;1192;76447;-79
2021/10/30 01:01:03;;;;;;;9.10;5.40;;;;;;;8.72;78.02;100239.73;115814;1192;72182;-79
2021/10/30 01:03:33;;;;;;;8.30;5.30;;;;;;;8.67;78.55;100242.59;115717;1192;72498;-79
2021/10/30 01:06:00;;;;;;;9.90;5.10;;;;;;;8.63;78.72;100243.02;115800;1192;60331;-79
2021/10/30 01:08:27;;;;;;;8.90;5.40;;;;;;;8.62;78.84;100241.60;115159;1192;61824;-78
2021/10/30 01:10:55;;;;;;;8.80;5.80;;;;;;;8.61;78.82;100239.26;115222;1192;75429;-78
2021/10/30 01:13:23;;;;;;;6.70;4.10;;;;;;;8.61;78.84;100240.01;115626;1192;71277;-78
2021/10/30 01:15:50;;;;;;;10.50;6.10;;;;;;;8.61;78.95;100236.38;115731;1192;72728;-78
2021/10/30 01:18:16;;;;;;;10.30;5.60;;;;;;;8.62;79.41;100234.02;115505;1191;61684;-78
2021/10/30 01:20:43;;;;;;;9.60;5.40;;;;;;;8.62;79.31;100239.55;115765;1192;60953;-78
2021/10/30 01:23:10;;;;;;;11.60;5.30;;;;;;;8.61;79.19;100237.50;115718;1192;76630;-81
2021/10/30 01:25:38;;;;;;;6.60;4.50;;;;;;;8.60;79.30;100240.98;115779;1192;72614;-81
2021/10/30 01:28:04;;;;;;;8.40;4.90;;;;;;;8.60;79.51;100240.13;115779;1191;71844;-80
2021/10/30 01:30:31;;;;;;;8.80;4.30;;;;;;;8.58;79.43;100237.62;115702;1192;60239;-79
2021/10/30 01:33:00;;;;;;;9.10;5.80;;;;;;;8.54;79.20;100239.59;115696;1192;59937;-79
2021/10/30 01:35:38;;;;;;;8.80;5.50;;;;;;;8.52;79.38;100235.84;114928;1192;76351;-79
2021/10/30 01:38:05;;;;;;;8.40;5.10;;;;;;;8.49;79.48;100235.81;115519;1192;71006;-78
2021/10/30 01:40:37;;;;;;;11.00;5.40;;;;;;;8.45;79.57;100234.65;115734;1192;71262;-78
2021/10/30 01:43:04;;;;;;;6.90;4.50;;;;;;;8.43;79.75;100230.89;115188;1192;62688;-78
2021/10/30 01:45:31;;;;;;;10.40;6.10;;;;;;;8.41;79.85;100222.08;115696;1192;61567;-78
2021/10/30 01:47:59;;;;;;;8.80;5.20;;;;;;;8.41;79.79;100220.91;115687;1192;76398;-78
2021/10/30 01:50:25;;;;;;;10.70;6.10;;;;;;;8.39;79.64;100221.72;115743;1192;71966;-79
2021/10/30 01:52:53;;;;;;;10.20;4.40;;;;;;;8.37;79.93;100215.79;115420;1192;72705;-78
2021/10/30 01:55:21;;;;;;;7.40;3.70;;;;;;;8.35;79.94;100222.17;115288;1192;60861;-78
2021/10/30 01:57:50;;;;;;;9.30;5.40;;;;;;;8.34;80.39;100222.13;115684;1192;60230;-78
2021/10/30 02:00:18;;;;;;;6.60;4.10;;;;;;;8.33;80.60;100217.65;115505;1191;76412;-79
2021/10/30 02:02:45;;;;;;;6.20;4.00;;;;;;;8.32;80.51;100222.67;115643;1192;71979;-78
2021/10/30 02:05:12;;;;;;;6.90;4.10;;;;;;;8.31;80.38;100219.00;115678;1191;72523;-79
2021/10/30 02:07:40;;;;;;;9.40;5.10;;;;;;;8.31;80.73;100214.20;115674;1192;61074;-78
2021/10/30 02:10:09;;;;;;;9.70;4.20;;;;;;;8.30;80.50;100214.86;115719;1192;61492;-78
2021/10/30 02:12:35;;;;;;;6.50;4.30;;;;;;;8.30;80.58;100211.52;115299;1192;76297;-79
2021/10/30 02:15:05;;;;;;;8.30;5.10;;;;;;;8.30;81.00;100210.09;115563;1192;71060;-78
2021/10/30 02:17:32;;;;;;;9.60;5.10;;;;;;;8.30;80.57;100204.58;115712;1192;71859;-79
2021/10/30 02:19:58;;;;;;;10.20;5.70;;;;;;;8.30;80.76;100201.08;115205;1192;61644;-77
2021/10/30 02:22:25;;;;;;;9.30;5.40;;;;;;;8.29;80.55;100194.84;115697;1192;61585;-78
2021/10/30 02:24:51;;;;;;;8.60;4.70;;;;;;;8.26;80.40;100192.38;115716;1191;74943;-78
2021/10/30 02:27:18;;;;;;;7.50;4.90;;;;;;;8.23;80.70;100191.17;115705;1192;71028;-78
2021/10/30 02:29:45;;;;;;;8.50;5.10;;;;;;;8.19;80.70;100193.70;115321;1192;72583;-79
2021/10/30 02:32:12;;;;;;;9.00;4.70;;;;;;;8.16;81.21;100190.88;114972;1192;61663;-78
2021/10/30 02:34:40;;;;;;;9.50;4.80;;;;;;;8.12;80.94;100188.98;115705;1192;61469;-78
2021/10/30 02:37:09;;;;;;;8.70;5.20;;;;;;;8.11;81.22;100191.95;115759;1191;76510;-78
2021/10/30 02:39:35;;;;;;;12.40;5.80;;;;;;;8.09;81.11;100188.62;115362;1192;72113;-78
2021/10/30 02:42:02;;;;;;;10.80;5.40;;;;;;;8.07;81.05;100186.05;115700;1191;59813;-78
2021/10/30 02:44:31;;;;;;;10.20;5.30;;;;;;;8.06;81.49;100183.96;115671;1192;63145;-78
2021/10/30 02:46:57;;;;;;;10.20;5.40;;;;;;;8.05;81.27;100182.72;115735;1192;61450;-78
2021/10/30 02:49:24;;;;;;;10.00;5.40;;;;;;;8.03;81.43;100180.34;115738;1192;75370;-78
2021/10/30 02:51:54;;;;;;;8.00;5.70;;;;;;;8.01;81.37;100180.90;115262;1192;71692;-77
2021/10/30 02:54:21;;;;;;;9.90;6.10;;;;;;;8.00;81.64;100183.99;114915;1192;72295;-79
2021/10/30 02:56:48;;;;;;;7.70;5.20;;;;;;;8.01;81.90;100180.38;115429;1193;59664;-78
2021/10/30 02:59:14;;;;;;;9.40;5.70;;;;;;;8.01;81.88;100177.04;115205;1192;60517;-80
2021/10/30 03:01:41;;;;;;;9.20;5.60;;;;;;;7.99;81.74;100179.02;115764;1191;75496;-79
2021/10/30 03:04:07;;;;;;;9.40;5.20;;;;;;;7.98;81.73;100174.08;115808;1192;71662;-79
2021/10/30 03:06:34;;;;;;;10.90;6.50;;;;;;;7.97;81.98;100171.54;115685;1192;72983;-78
2021/10/30 03:09:02;;;;;;;8.70;5.70;;;;;;;7.95;81.75;100171.67;115731;1192;62002;-78
2021/10/30 03:11:29;;;;;;;12.00;6.30;;;;;;;7.94;81.80;100171.77;115688;1192;61357;-78
2021/10/30 03:13:56;;;;;;;10.60;6.30;;;;;;;7.93;82.00;100170.98;114807;1192;75176;-77
2021/10/30 03:16:22;;;;;;;9.60;6.00;;;;;;;7.93;81.95;100167.74;115742;1192;59877;-77
2021/10/30 03:18:49;;;;;;;10.50;6.40;;;;;;;7.91;81.83;100163.17;115582;1192;72395;-79
2021/10/30 03:21:15;;;;;;;10.20;6.20;;;;;;;7.89;82.08;100162.23;115022;1192;61798;-78
2021/10/30 03:23:42;;;;;;;11.40;6.60;;;;;;;7.86;81.92;100157.44;115769;1191;60242;-77
2021/10/30 03:26:08;;;;;;;8.00;5.00;;;;;;;7.83;82.44;100153.66;115651;1192;61948;-78
2021/10/30 03:28:35;;;;;;;11.20;6.60;;;;;;;7.80;82.43;100149.77;115819;1192;59637;-78
2021/10/30 03:31:02;;;;;;;10.00;6.10;;;;;;;7.77;82.57;100146.24;115732;1192;72591;-78
2021/10/30 03:33:29;;;;;;;10.40;6.10;;;;;;;7.74;82.98;100148.59;115363;1192;61865;-79
2021/10/30 03:35:55;;;;;;;13.10;6.20;;;;;;;7.75;82.60;100148.00;115554;1192;60631;-78
2021/10/30 03:38:22;;;;;;;11.50;6.00;;;;;;;7.77;82.86;100151.72;115633;1192;59853;-78
2021/10/30 03:40:49;;;;;;;10.50;5.90;;;;;;;7.79;83.07;100151.55;114883;1192;72052;-77
2021/10/30 03:43:16;;;;;;;10.10;5.60;;;;;;;7.80;83.19;100153.52;115784;1192;73705;-78
2021/10/30 03:45:43;;;;;;;7.60;4.90;;;;;;;7.81;83.57;100151.48;115719;1192;60008;-77
2021/10/30 03:48:10;;;;;;;9.10;5.70;;;;;;;7.84;83.39;100149.52;115793;1192;60237;-77
2021/10/30 03:50:37;;;;;;;8.20;5.40;;;;;;;7.86;83.62;100144.17;115791;1192;75490;-77
2021/10/30 03:53:07;;;;;;;8.70;4.80;;;;;;;7.89;83.37;100140.52;115606;1192;71996;-78
2021/10/30 03:55:34;;;;;;;9.20;5.20;;;;;;;7.93;83.03;100132.27;115390;1192;74084;-78
2021/10/30 03:58:01;;;;;;;9.60;5.60;;;;;;;7.98;83.02;100134.23;115701;1192;62982;-78
2021/10/30 04:00:27;;;;;;;8.20;4.30;;;;;;;8.04;82.95;100125.64;114944;1192;61735;-78
2021/10/30 04:02:54;;;;;;;11.40;5.70;;;;;;;8.09;82.56;100126.45;115776;1192;76401;-78
2021/10/30 04:05:21;;;;;;;8.00;5.40;;;;;;;8.15;82.31;100132.95;115832;1192;71429;-78
2021/10/30 04:07:49;;;;;;;6.90;4.20;;;;;;;8.22;82.10;100134.20;115774;1192;71517;-79
2021/10/30 04:10:16;;;;;;;10.40;4.60;;;;;;;8.27;81.71;100126.38;115804;1192;62904;-79
2021/10/30 04:12:42;;;;;;;9.20;5.40;;;;;;;8.33;81.50;100118.68;115876;1192;59833;-78
2021/10/30 04:15:10;;;;;;;8.80;5.40;;;;;;;8.40;80.83;100114.23;115130;1192;77004;-79
2021/10/30 04:17:36;;;;;;;7.80;4.70;;;;;;;8.46;80.37;100109.61;115760;1192;72049;-79
2021/10/30 04:20:03;;;;;;;7.90;4.60;;;;;;;8.50;80.26;100107.60;115581;1192;73146;-78
2021/10/30 04:22:30;;;;;;;7.00;4.20;;;;;;;8.51;80.09;100106.80;115835;1192;60080;-78
2021/10/30 04:24:57;;;;;;;9.40;5.60;;;;;;;8.49;79.84;100111.77;115837;1191;59885;-78
2021/10/30 04:27:24;;;;;;;8.90;5.50;;;;;;;8.48;79.75;100117.21;115869;1192;75408;-78
2021/10/30 04:29:51;;;;;;;8.80;5.10;;;;;;;8.50;79.47;100115.30;114765;1192;72264;-79
2021/10/30 04:32:18;;;;;;;7.10;4.10;;;;;;;8.53;79.69;100115.18;115699;1192;59635;-78
2021/10/30 04:34:50;;;;;;;9.70;5.70;;;;;;;8.56;79.20;100108.13;115835;1192;60679;-78
2021/10/30 04:37:17;;;;;;;8.30;4.40;;;;;;;8.58;79.34;100106.13;114929;1192;61779;-78
2021/10/30 04:39:52;;;;;;;8.30;5.50;;;;;;;8.60;79.02;100097.45;115797;1192;76587;-78
2021/10/30 04:42:21;;;;;;;9.20;4.40;;;;;;;8.65;78.52;100091.77;115862;1192;72031;-78
2021/10/30 04:44:48;;;;;;;8.50;4.70;;;;;;;8.71;78.19;100091.21;115814;1192;73592;-80
2021/10/30 04:47:16;;;;;;;11.60;5.20;;;;;;;8.78;77.94;100090.31;115802;1192;62381;-79
2021/10/30 04:49:46;;;;;;;7.90;4.60;;;;;;;8.80;77.59;100089.46;115032;1192;61847;-79
2021/10/30 04:52:13;;;;;;;9.90;5.40;;;;;;;8.82;77.41;100088.63;115703;1193;76140;-79
2021/10/30 04:54:40;;;;;;;9.40;4.30;;;;;;;8.81;77.51;100089.63;115811;1192;72050;-79
2021/10/30 04:57:09;;;;;;;9.60;5.50;;;;;;;8.78;77.57;100082.64;115195;1192;73857;-78
2021/10/30 04:59:36;;;;;;;10.00;5.70;;;;;;;8.78;77.42;100076.80;115779;1192;60381;-79
2021/10/30 05:02:03;;;;;;;8.10;4.80;;;;;;;8.74;77.49;100075.16;115788;1186;60267;-78
2021/10/30 05:04:29;;;;;;;9.50;5.00;;;;;;;8.70;77.37;100085.05;115768;1192;75336;-78
2021/10/30 05:06:56;;;;;;;7.50;5.10;;;;;;;8.68;77.35;100089.52;115667;1192;59730;-78
2021/10/30 05:09:24;;;;;;;14.70;6.50;;;;;;;8.65;77.21;100084.08;115817;1192;73557;-78
2021/10/30 05:11:51;;;;;;;10.00;5.70;;;;;;;8.63;77.10;100079.39;114796;1192;62692;-78
2021/10/30 05:14:17;;;;;;;9.40;4.60;;;;;;;8.58;77.35;100080.18;115591;1192;60425;-79
2021/10/30 05:16:44;;;;;;;8.50;4.60;;;;;;;8.54;77.40;100074.79;115806;1192;76397;-78
2021/10/30 05:19:10;;;;;;;9.10;4.80;;;;;;;8.52;77.15;100077.80;114962;1192;72001;-79
2021/10/30 05:21:37;;;;;;;8.90;5.20;;;;;;;8.49;76.78;100076.48;115770;1192;60707;-79
2021/10/30 05:24:04;;;;;;;9.30;5.00;;;;;;;8.47;77.19;100078.71;115659;1192;59835;-79
2021/10/30 05:26:30;;;;;;;10.00;5.60;;;;;;;8.48;76.90;100075.61;115745;1192;61003;-79
2021/10/30 05:28:57;;;;;;;10.90;5.20;;;;;;;8.49;76.56;100074.77;115817;1192;75059;-79
2021/10/30 05:31:24;;;;;;;7.10;4.20;;;;;;;8.50;76.56;100071.79;115761;1192;72036;-79
2021/10/30 05:33:51;;;;;;;8.60;5.10;;;;;;;8.52;76.71;100071.21;115825;1191;72629;-80
2021/10/30 05:36:20;;;;;;;7.50;4.70;;;;;;;8.58;76.06;100076.06;115849;1192;60415;-80
2021/10/30 05:38:52;;;;;;;8.00;5.00;;;;;;;8.62;75.93;100077.80;115235;1192;61756;-79
2021/10/30 05:41:19;;;;;;;8.70;5.60;;;;;;;8.64;75.90;100073.76;115657;1192;75220;-81
2021/10/30 05:43:46;;;;;;;9.30;5.80;;;;;;;8.61;76.05;100066.64;115707;1192;72181;-79
2021/10/30 05:46:13;;;;;;;5.60;3.80;;;;;;;8.55;76.39;100066.76;115513;1192;73567;-79
2021/10/30 05:48:41;;;;;;;11.70;6.50;;;;;;;8.48;76.35;100063.73;115766;1192;62803;-71
2021/10/30 05:51:11;;;;;;;10.30;5.10;;;;;;;8.42;76.57;100060.73;115783;1192;59790;-71
2021/10/30 05:53:39;;;;;;;11.40;6.10;;;;;;;8.37;76.63;100055.66;115701;1192;75409;-71
2021/10/30 05:56:06;;;;;;;12.90;6.70;;;;;;;8.33;76.68;100048.22;115708;1192;70710;-71
2021/10/30 05:58:33;;;;;;;9.40;6.20;;;;;;;8.29;76.87;100050.75;115694;1192;72643;-71
2021/10/30 06:00:59;;;;;;;9.00;5.30;;;;;;;8.27;76.96;100052.92;114858;1192;61689;-72
2021/10/30 06:03:27;;;;;;;10.60;6.40;;;;;;;8.24;77.47;100058.23;115731;1192;59927;-72
2021/10/30 06:05:54;;;;;;;10.30;6.00;;;;;;;8.22;77.31;100063.89;114638;1192;75539;-72
2021/10/30 06:08:21;;;;;;;10.80;5.70;;;;;;;8.19;77.65;100064.80;115514;1192;71108;-73
2021/10/30 06:10:47;;;;;;;12.30;6.80;;;;;;;8.19;77.67;100073.38;115627;1192;72179;-72
2021/10/30 06:13:14;;;;;;;10.10;6.10;;;;;;;8.15;77.58;100074.49;115663;1192;60127;-72
2021/10/30 06:15:40;;;;;;;9.10;6.00;;;;;;;8.14;77.98;100073.44;115780;1191;60288;-72
2021/10/30 06:18:07;;;;;;;13.20;6.40;;;;;;;8.12;77.90;100068.35;115698;1192;60186;-72
2021/10/30 06:20:33;;;;;;;8.80;5.90;;;;;;;8.13;77.78;100063.98;115274;1192;72651;-73
2021/10/30 06:23:02;;;;;;;12.80;7.30;;;;;;;8.13;77.96;100065.02;115518;1192;73724;-72
2021/10/30 06:25:29;;;;;;;10.40;6.60;;;;;;;8.14;78.08;100064.44;115665;1192;62896;-73
2021/10/30 06:27:55;;;;;;;14.90;7.80;;;;;;;8.16;78.11;100070.05;115160;1187;61856;-73
2021/10/30 06:30:22;;;;;;;10.40;6.30;;;;;;;8.18;78.31;100068.94;115635;1192;60527;-73
2021/10/30 06:32:48;;;;;;;7.90;6.00;;;;;;;8.21;78.00;100075.65;115565;1192;71213;-73
2021/10/30 06:35:16;;;;;;;10.40;6.80;;;;;;;8.25;78.19;100074.51;115697;1192;73820;-73
2021/10/30 06:37:43;;;;;;;13.40;6.90;;;;;;;8.29;77.76;100071.17;115488;1192;61281;-73
2021/10/30 06:40:13;;;;;;;10.00;6.30;;;;;;;8.34;77.88;100074.19;115076;1192;61280;-73
2021/10/30 06:42:40;;;;;;;11.10;6.40;;;;;;;8.38;77.70;100064.16;115801;1192;75406;-73
2021/10/30 06:45:08;;;;;;;12.30;7.70;;;;;;;8.42;77.62;100066.71;115971;1192;71992;-73
2021/10/30 06:47:38;;;;;;;8.70;5.10;;;;;;;8.46;77.53;100064.30;115610;1192;73405;-73
2021/10/30 06:50:07;;;;;;;13.70;6.80;;;;;;;8.51;77.54;100051.30;115758;1192;61892;-73
2021/10/30 06:52:37;;;;;;;9.40;6.20;;;;;;;8.56;77.44;100049.04;115917;1192;59968;-73
2021/10/30 06:55:07;;;;;;;11.00;6.00;;;;;;;8.62;77.45;100047.03;115456;1192;76834;-73
2021/10/30 06:57:34;;;;;;;9.50;6.20;;;;;;;8.66;77.45;100045.61;115937;1192;71293;-73
2021/10/30 07:00:03;;;;;;;14.00;6.60;;;;;;;8.70;77.11;100039.50;115548;1192;72479;-73
2021/10/30 07:02:29;;;;;;;10.50;6.00;;;;;;;8.74;77.22;100044.23;115944;1192;60277;-73
2021/10/30 07:04:58;;;;;;;10.10;5.70;;;;;;;8.74;77.57;100044.56;115668;1192;61278;-73
2021/10/30 07:07:25;;;;;;;13.50;6.10;;;;;;;8.75;77.51;100050.43;115982;1192;75480;-73
2021/10/30 07:10:01;;;;;;;11.10;5.80;;;;;;;8.75;77.54;100049.66;115854;1192;69978;-73
2021/10/30 07:12:34;;;;;;;11.00;5.80;;;;;;;8.75;77.70;100043.72;115828;1192;73937;-73
2021/10/30 07:15:07;;;;;;;;;;;;;;;8.75;77.80;100039.89;115943;1192;60288;-73
2021/10/30 07:17:34;;;;;;;12.50;6.70;;;;;;;8.75;77.78;100038.92;115990;1191;61087;-73
2021/10/30 07:20:01;;;;;;;9.60;6.20;;;;;;;8.77;77.88;100030.78;115824;1191;76347;-73
2021/10/30 07:22:27;;;;;;;10.00;5.30;;;;;;;8.80;77.80;100030.98;115873;1191;71472;-73
2021/10/30 07:24:54;;;;;;;11.30;6.30;;;;;;;8.84;77.82;100035.11;115230;1192;72609;-73
2021/10/30 07:27:23;;;;;;;15.20;6.40;;;;;;;8.89;77.67;100038.57;115633;1192;63026;-73
2021/10/30 07:29:50;;;;;;;15.10;6.50;;;;;;;8.94;77.71;100041.61;115657;1192;61054;-73
2021/10/30 07:32:17;;;;;;;12.10;5.80;;;;;;;8.99;77.48;100036.80;115665;1192;59838;-73
2021/10/30 07:34:44;;;;;;;11.10;6.50;;;;;;;9.07;77.51;100035.45;115346;1192;71022;-73
2021/10/30 07:37:11;;;;;;;13.30;6.60;;;;;;;9.14;77.14;100032.60;115781;1192;72632;-73
2021/10/30 07:39:37;;;;;;;13.10;6.60;;;;;;;9.20;76.76;100026.77;115822;1192;61309;-73
2021/10/30 07:42:06;;;;;;;11.20;6.40;;;;;;;9.26;76.97;100030.67;115311;1192;61545;-74
2021/10/30 07:44:37;;;;;;;11.00;6.60;;;;;;;9.33;77.03;100029.52;115875;1192;76449;-74
2021/10/30 07:47:05;;;;;;;10.00;5.90;;;;;;;9.41;76.78;100032.92;115901;1192;72086;-74
2021/10/30 07:49:32;;;;;;;9.80;5.70;;;;;;;9.52;76.80;100031.14;115748;1192;73590;-74
2021/10/30 07:52:01;;;;;;;12.40;6.80;;;;;;;9.65;76.70;100034.36;115864;1192;60149;-74
2021/10/30 07:54:28;;;;;;;10.10;5.40;;;;;;;9.79;76.43;100029.80;115887;1192;60045;-74
2021/10/30 07:56:54;;;;;;;9.60;5.80;;;;;;;9.92;75.92;100030.65;115890;1192;60163;-74
2021/10/30 07:59:21;;;;;;;9.60;5.20;;;;;;;10.04;75.48;100025.14;115924;1192;72176;-74
2021/10/30 08:01:50;;;;;;;9.60;5.20;;;;;;;10.16;74.98;100020.50;115769;1192;72589;-73
2021/10/30 08:04:17;;;;;;;9.60;6.40;;;;;;;10.27;74.62;100019.00;115905;1191;61309;-75
2021/10/30 08:06:44;;;;;;;10.40;5.60;;;;;;;10.38;74.02;100019.48;115862;1192;60131;-74
2021/10/30 08:09:11;;;;;;;11.30;6.10;;;;;;;10.49;73.65;100021.90;115923;1192;76695;-74
2021/10/30 08:11:40;;;;;;;11.60;6.00;;;;;;;10.61;73.04;100019.98;115824;1192;71130;-74
2021/10/30 08:14:07;;;;;;;8.40;5.00;;;;;;;10.72;72.69;100017.92;115743;1184;71283;-74
2021/10/30 08:16:35;;;;;;;11.20;6.00;;;;;;;10.86;72.47;100025.38;115850;1192;61372;-74
2021/10/30 08:19:03;;;;;;;10.20;5.40;;;;;;;11.01;71.98;100023.27;115777;1192;61720;-74
2021/10/30 08:21:30;;;;;;;9.80;6.20;;;;;;;11.18;71.52;100015.49;115894;1192;76657;-74
2021/10/30 08:23:57;;;;;;;9.10;5.40;;;;;;;11.32;71.37;100008.09;115415;1192;70981;-74
2021/10/30 08:26:24;;;;;;;7.30;4.70;;;;;;;11.47;70.77;100010.09;115899;1192;72788;-75
2021/10/30 08:28:51;;;;;;;8.00;5.80;;;;;;;11.62;70.57;100014.80;115736;1192;61655;-74
2021/10/30 08:31:18;;;;;;;11.00;5.60;;;;;;;11.77;70.34;100020.55;115516;1192;61512;-74
2021/10/30 08:33:44;;;;;;;7.20;4.90;;;;;;;11.93;69.84;100022.34;115924;1192;75516;-74
2021/10/30 08:36:11;;;;;;;8.00;5.10;;;;;;;12.08;69.38;100025.25;115931;1192;72173;-74
2021/10/30 08:38:38;;;;;;;7.70;5.00;;;;;;;12.25;68.91;100022.41;115931;1192;72824;-74
2021/10/30 08:41:05;;;;;;;7.60;5.10;;;;;;;12.40;68.79;100014.66;115963;1192;60504;-74
2021/10/30 08:43:32;;;;;;;8.40;5.30;;;;;;;12.52;68.33;100011.48;115927;1192;60154;-74
2021/10/30 08:46:00;;;;;;;7.30;5.00;;;;;;;12.62;67.93;100006.48;115978;1192;75396;-74
2021/10/30 08:48:31;;;;;;;8.70;4.20;;;;;;;12.69;67.29;100010.16;115839;1192;69585;-74
2021/10/30 08:51:04;;;;;;;6.80;4.20;;;;;;;12.74;67.17;100014.33;115738;1184;72559;-74
2021/10/30 08:53:31;;;;;;;7.90;4.60;;;;;;;12.79;67.18;100014.86;115916;1192;61273;-74
2021/10/30 08:56:03;;;;;;;8.90;5.00;;;;;;;12.82;66.96;100004.50;115999;1192;60175;-74
2021/10/30 08:58:30;;;;;;;7.80;5.00;;;;;;;12.84;67.09;100000.44;115967;1192;76565;-74
2021/10/30 09:01:01;;;;;;;7.00;3.40;;;;;;;12.86;66.91;100002.57;115816;1184;70886;-74
2021/10/30 09:03:29;;;;;;;7.20;4.20;;;;;;;12.86;66.94;99991.92;115964;1192;72621;-74
2021/10/30 09:05:58;;;;;;;5.80;3.90;;;;;;;12.87;66.73;99983.77;115826;1192;61324;-74
2021/10/30 09:08:31;;;;;;;7.50;4.30;;;;;;;12.89;67.25;99972.62;115879;1191;60063;-74
2021/10/30 09:11:08;;;;;;;14.80;5.80;;;;;;;12.92;67.62;99970.50;115894;1192;76392;-74
2021/10/30 09:13:37;;;;;;;6.30;3.20;;;;;;;12.94;67.70;99970.38;115877;1192;72262;-74
2021/10/30 09:16:04;;;;;;;7.30;3.70;;;;;;;12.94;67.71;99970.79;115939;1192;71437;-74
2021/10/30 09:18:32;;;;;;;5.40;3.50;;;;;;;12.94;67.47;99967.30;115810;1192;61986;-74
2021/10/30 09:21:02;;;;;;;7.20;3.40;;;;;;;12.96;67.62;99958.25;115973;1192;59711;-74
2021/10/30 09:23:30;;;;;;;7.20;3.20;;;;;;;12.97;67.77;99945.45;115938;1192;74717;-74
2021/10/30 09:26:08;;;;;;;5.00;3.20;;;;;;;12.99;67.63;99944.63;116021;1192;71304;-74
2021/10/30 09:28:41;;;;;;;6.50;2.90;;;;;;;13.01;67.37;99940.36;115908;1192;74332;-74
2021/10/30 09:31:12;;;;;;;6.20;3.10;;;;;;;13.02;66.86;99935.09;115939;1192;61042;-74
2021/10/30 09:34:12;;;;;;;8.10;3.20;;;;;;;13.02;66.99;99930.16;115878;1192;60338;-74
2021/10/30 09:36:43;;;;;;;5.90;3.40;;;;;;;13.02;67.09;99920.70;115340;1192;76843;-74
2021/10/30 09:39:17;;;;;;;5.40;3.60;;;;;;;13.02;66.96;99915.98;115569;1192;71002;-74
2021/10/30 09:41:45;;;;;;;8.90;3.60;;;;;;;13.02;66.98;99912.27;115940;1192;73131;-74
2021/10/30 09:44:24;;;;;;;6.20;3.70;;;;;;;13.06;67.34;99907.29;116012;1192;61335;-74
2021/10/30 09:46:57;;;;;;;8.00;4.00;;;;;;;13.14;67.43;99907.35;115768;1192;60368;-74
2021/10/30 09:49:30;;;;;;;4.90;3.40;;;;;;;13.24;67.90;99908.09;115724;1192;75525;-74
2021/10/30 09:52:06;;;;;;;8.80;3.20;;;;;;;13.32;67.96;99904.30;115954;1192;71228;-74
2021/10/30 09:54:38;;;;;;;5.60;3.30;;;;;;;13.36;67.77;99896.70;115933;1192;71603;-74
2021/10/30 09:57:07;;;;;;;5.50;3.40;;;;;;;13.35;67.26;99894.91;115943;1191;60561;-74
2021/10/30 09:59:39;;;;;;;10.70;3.80;;;;;;;13.32;67.42;99890.24;115562;1192;60364;-74
2021/10/30 10:02:07;;;;;;;6.30;3.40;;;;;;;13.31;67.48;99887.59;115760;1192;75669;-74
2021/10/30 10:04:39;;;;;;;9.60;3.70;;;;;;;13.33;67.42;99884.10;115241;1187;70984;-74
2021/10/30 10:07:08;;;;;;;6.40;3.60;;;;;;;13.36;67.22;99882.36;115942;1192;73355;-74
2021/10/30 10:09:36;;;;;;;4.80;3.10;;;;;;;13.37;66.88;99875.55;115951;1192;60851;-74
2021/10/30 10:12:04;;;;;;;5.30;3.70;;;;;;;13.35;66.92;99879.95;115932;1192;61326;-74
2021/10/30 10:14:33;;;;;;;5.40;3.20;;;;;;;13.33;66.80;99879.77;115623;1191;76111;-74
2021/10/30 10:17:00;;;;;;;14.00;3.80;;;;;;;13.32;67.31;99877.66;115898;1192;70985;-74
2021/10/30 10:19:27;;;;;;;4.90;3.00;;;;;;;13.32;67.19;99874.67;115912;1192;72572;-74
2021/10/30 10:21:54;;;;;;;7.00;3.60;;;;;;;13.30;67.23;99870.19;115645;1192;61737;-74
2021/10/30 10:24:29;;;;;;;5.60;3.40;;;;;;;13.27;67.53;99861.31;115560;1192;61288;-74
2021/10/30 10:27:01;;;;;;;7.10;3.50;;;;;;;13.26;67.74;99854.48;115919;1192;74913;-74
2021/10/30 10:29:43;;;;;;;5.40;3.10;;;;;;;13.28;67.68;99854.46;115912;1192;72120;-74
2021/10/30 10:32:16;;;;;;;4.70;2.70;;;;;;;13.30;67.55;99851.20;115798;1186;73998;-74
2021/10/30 10:34:42;;;;;;;8.50;3.30;;;;;;;13.31;67.61;99845.67;115447;1192;61763;-74
2021/10/30 10:37:12;;;;;;;4.60;2.40;;;;;;;13.29;66.55;99840.86;115696;1192;59821;-75
2021/10/30 10:39:53;;;;;;;7.00;3.30;;;;;;;13.24;65.42;99833.14;115570;1192;76782;-75
2021/10/30 10:42:43;;;;;;;4.50;2.80;;;;;;;13.18;65.52;99833.09;115923;1192;71071;-74
2021/10/30 10:45:11;;;;;;;7.60;3.00;;;;;;;13.15;65.83;99831.55;115687;1191;74146;-73
2021/10/30 10:47:38;;;;;;;4.40;2.80;;;;;;;13.18;66.35;99820.14;115732;1192;60787;-73
2021/10/30 10:50:26;;;;;;;8.90;3.50;;;;;;;13.23;66.27;99823.41;114962;1192;61756;-73
2021/10/30 10:52:59;;;;;;;7.80;3.40;;;;;;;13.28;66.92;99812.94;115474;1192;75344;-73
2021/10/30 10:55:27;;;;;;;5.40;3.50;;;;;;;13.32;67.67;99805.38;115734;1191;70486;-73
2021/10/30 10:58:05;;;;;;;6.40;3.00;;;;;;;13.35;68.12;99803.55;115619;1192;72678;-73
2021/10/30 11:00:33;;;;;;;5.30;2.80;;;;;;;13.36;67.91;99794.79;115710;1192;61641;-74
2021/10/30 11:03:00;;;;;;;6.70;3.50;;;;;;;13.33;68.13;99791.56;115790;1192;61720;-73
2021/10/30 11:05:31;;;;;;;4.70;3.00;;;;;;;13.32;67.99;99796.23;115650;1192;76456;-74
2021/10/30 11:08:11;;;;;;;4.40;3.10;;;;;;;13.25;67.39;99796.48;115721;1191;72329;-74
2021/10/30 11:10:42;;;;;;;5.20;2.50;;;;;;;13.22;67.42;99794.52;115304;1191;61865;-73
2021/10/30 11:13:12;;;;;;;4.20;2.80;;;;;;;13.22;67.13;99791.69;115787;1192;60707;-73
2021/10/30 11:15:48;;;;;;;7.00;3.20;;;;;;;13.24;67.20;99792.83;115744;1191;59980;-73
2021/10/30 11:18:23;;;;;;;6.20;3.50;;;;;;;13.29;67.20;99794.82;115776;1192;75493;-73
2021/10/30 11:21:12;;;;;;;5.20;3.10;;;;;;;13.34;67.08;99788.33;115739;1192;73650;-73
2021/10/30 11:23:47;;;;;;;5.10;2.90;;;;;;;13.38;66.72;99783.42;115727;1191;73723;-73
2021/10/30 11:26:22;;;;;;;5.80;3.40;;;;;;;13.42;66.81;99785.41;115776;1192;60341;-73
2021/10/30 11:28:49;;;;;;;5.40;3.20;;;;;;;13.46;66.75;99782.09;115506;1191;60410;-73